DLH6LK EDDM-ENGM
Flight info
| Callsign | DLH6LK |
|---|---|
| Flight time | 1h 53m |
| Altitude | 38000 |
| Route | INPUD3E INPUD Y102 UPALA M726 LASGA DCT EMBOX DCT BUMIL DCT GIMRU DCT SABAK L997 LUNIP |
| Aircraft | A320/M-SDE2E3FGIJ1LORWXYZ/HB1 |
Departure
| Time | 2026-05-08 07:58 |
|---|---|
| Airport | Munich Airport (EDDM) |
Arrival
| Time | 2026-05-08 09:51 |
|---|---|
| Airport | Oslo-Gardermoen International Airport (ENGM) |
| Time | Latitude | Longitude | Altitude | Speed | Heading |
|---|---|---|---|---|---|
| 2026-05-08 07:22 | 48.35552 | 11.80017 | 1467 ft | 0 kts | 263° |
| 2026-05-08 07:45 | 48.35553 | 11.80041 | 1456 ft | 3 kts | 270° |
| 2026-05-08 07:45 | 48.35550 | 11.80073 | 1467 ft | 3 kts | 301° |
| 2026-05-08 07:46 | 48.35537 | 11.80091 | 1467 ft | 2 kts | 353° |
| 2026-05-08 07:46 | 48.35536 | 11.80091 | 1467 ft | 0 kts | 353° |
| 2026-05-08 07:50 | 48.35563 | 11.80086 | 1461 ft | 11 kts | 353° |
| 2026-05-08 07:50 | 48.35642 | 11.80073 | 1463 ft | 11 kts | 355° |
| 2026-05-08 07:50 | 48.35709 | 11.80077 | 1461 ft | 9 kts | 0° |
| 2026-05-08 07:51 | 48.35765 | 11.80068 | 1464 ft | 7 kts | 351° |
| 2026-05-08 07:51 | 48.35811 | 11.80016 | 1465 ft | 13 kts | 305° |
| 2026-05-08 07:51 | 48.35820 | 11.79896 | 1467 ft | 11 kts | 266° |
| 2026-05-08 07:51 | 48.35814 | 11.79790 | 1458 ft | 9 kts | 263° |
| 2026-05-08 07:52 | 48.35804 | 11.79673 | 1463 ft | 16 kts | 263° |
| 2026-05-08 07:52 | 48.35831 | 11.79529 | 1467 ft | 14 kts | 341° |
| 2026-05-08 07:52 | 48.35929 | 11.79509 | 1465 ft | 14 kts | 353° |
| 2026-05-08 07:52 | 48.36027 | 11.79491 | 1462 ft | 14 kts | 353° |
| 2026-05-08 07:53 | 48.36096 | 11.79422 | 1462 ft | 12 kts | 283° |
| 2026-05-08 07:53 | 48.36090 | 11.79306 | 1460 ft | 11 kts | 263° |
| 2026-05-08 07:53 | 48.36073 | 11.79100 | 1468 ft | 25 kts | 263° |
| 2026-05-08 07:53 | 48.36054 | 11.78828 | 1461 ft | 27 kts | 263° |
| 2026-05-08 07:54 | 48.36033 | 11.78550 | 1464 ft | 26 kts | 263° |
| 2026-05-08 07:54 | 48.36013 | 11.78293 | 1467 ft | 24 kts | 264° |
| 2026-05-08 07:54 | 48.35994 | 11.78040 | 1464 ft | 25 kts | 263° |
| 2026-05-08 07:54 | 48.35974 | 11.77773 | 1467 ft | 26 kts | 263° |
| 2026-05-08 07:55 | 48.35952 | 11.77492 | 1464 ft | 28 kts | 263° |
| 2026-05-08 07:55 | 48.35934 | 11.77283 | 1467 ft | 15 kts | 263° |
| 2026-05-08 07:55 | 48.35923 | 11.77140 | 1466 ft | 13 kts | 266° |
| 2026-05-08 07:55 | 48.35958 | 11.77028 | 1461 ft | 11 kts | 306° |
| 2026-05-08 07:56 | 48.36016 | 11.76976 | 1464 ft | 9 kts | 353° |
| 2026-05-08 07:56 | 48.36096 | 11.76961 | 1459 ft | 18 kts | 352° |
| 2026-05-08 07:56 | 48.36217 | 11.76937 | 1464 ft | 14 kts | 353° |
| 2026-05-08 07:56 | 48.36278 | 11.76955 | 1460 ft | 7 kts | 32° |
| 2026-05-08 07:57 | 48.36295 | 11.77005 | 1469 ft | 8 kts | 79° |
| 2026-05-08 07:57 | 48.36328 | 11.77410 | 1469 ft | 76 kts | 83° |
| 2026-05-08 07:57 | 48.36415 | 11.78526 | 1462 ft | 136 kts | 83° |
| 2026-05-08 07:57 | 48.36531 | 11.80152 | 1675 ft | 163 kts | 85° |
| 2026-05-08 07:58 | 48.36618 | 11.81818 | 2409 ft | 160 kts | 85° |
| 2026-05-08 07:58 | 48.36733 | 11.83531 | 2934 ft | 172 kts | 83° |
| 2026-05-08 07:58 | 48.36923 | 11.85425 | 3225 ft | 195 kts | 73° |
| 2026-05-08 07:58 | 48.37802 | 11.87089 | 3495 ft | 222 kts | 28° |
| 2026-05-08 07:59 | 48.39381 | 11.87614 | 3869 ft | 248 kts | 1° |
| 2026-05-08 07:59 | 48.41140 | 11.87215 | 4479 ft | 264 kts | 335° |
| 2026-05-08 07:59 | 48.42576 | 11.85482 | 5328 ft | 269 kts | 308° |
| 2026-05-08 07:59 | 48.43697 | 11.83223 | 6310 ft | 269 kts | 307° |
| 2026-05-08 08:00 | 48.44898 | 11.80998 | 7248 ft | 271 kts | 308° |
| 2026-05-08 08:00 | 48.46113 | 11.78858 | 8128 ft | 273 kts | 309° |
| 2026-05-08 08:00 | 48.47365 | 11.76690 | 9027 ft | 275 kts | 309° |
| 2026-05-08 08:00 | 48.48646 | 11.74478 | 9946 ft | 278 kts | 308° |
| 2026-05-08 08:01 | 48.49900 | 11.72301 | 10746 ft | 280 kts | 308° |
| 2026-05-08 08:01 | 48.51196 | 11.70033 | 11502 ft | 284 kts | 309° |
| 2026-05-08 08:01 | 48.52491 | 11.67760 | 12268 ft | 288 kts | 309° |
| 2026-05-08 08:01 | 48.53804 | 11.65444 | 13014 ft | 293 kts | 309° |
| 2026-05-08 08:02 | 48.55136 | 11.63093 | 13761 ft | 297 kts | 309° |
| 2026-05-08 08:02 | 48.56562 | 11.60806 | 14425 ft | 302 kts | 318° |
| 2026-05-08 08:02 | 48.58322 | 11.59019 | 14907 ft | 315 kts | 332° |
| 2026-05-08 08:02 | 48.60430 | 11.57721 | 15050 ft | 338 kts | 337° |
| 2026-05-08 08:03 | 48.62669 | 11.56442 | 15485 ft | 348 kts | 337° |
| 2026-05-08 08:03 | 48.64922 | 11.55162 | 16086 ft | 353 kts | 337° |
| 2026-05-08 08:03 | 48.67260 | 11.53824 | 16737 ft | 356 kts | 337° |
| 2026-05-08 08:03 | 48.69588 | 11.52483 | 17380 ft | 360 kts | 337° |
| 2026-05-08 08:04 | 48.71937 | 11.51127 | 18011 ft | 363 kts | 337° |
| 2026-05-08 08:04 | 48.74312 | 11.49753 | 18605 ft | 367 kts | 336° |
| 2026-05-08 08:04 | 48.76706 | 11.48363 | 19155 ft | 370 kts | 336° |
| 2026-05-08 08:04 | 48.79116 | 11.46963 | 19717 ft | 373 kts | 336° |
| 2026-05-08 08:05 | 48.81553 | 11.45547 | 20290 ft | 376 kts | 336° |
| 2026-05-08 08:05 | 48.84006 | 11.44122 | 20874 ft | 379 kts | 336° |
| 2026-05-08 08:05 | 48.86474 | 11.42689 | 21462 ft | 381 kts | 336° |
| 2026-05-08 08:05 | 48.88961 | 11.41244 | 22069 ft | 384 kts | 336° |
| 2026-05-08 08:06 | 48.91473 | 11.39777 | 22629 ft | 387 kts | 336° |
| 2026-05-08 08:06 | 48.93991 | 11.38299 | 23171 ft | 389 kts | 336° |
| 2026-05-08 08:06 | 48.96497 | 11.36828 | 23706 ft | 392 kts | 336° |
| 2026-05-08 08:06 | 48.99052 | 11.35329 | 24164 ft | 395 kts | 336° |
| 2026-05-08 08:07 | 49.01627 | 11.33820 | 24591 ft | 397 kts | 336° |
| 2026-05-08 08:07 | 49.04215 | 11.32303 | 25017 ft | 400 kts | 336° |
| 2026-05-08 08:07 | 49.06816 | 11.30770 | 25443 ft | 403 kts | 336° |
| 2026-05-08 08:07 | 49.09437 | 11.29230 | 25870 ft | 405 kts | 335° |
| 2026-05-08 08:08 | 49.12073 | 11.27677 | 26254 ft | 407 kts | 335° |
| 2026-05-08 08:08 | 49.14723 | 11.26113 | 26657 ft | 410 kts | 335° |
| 2026-05-08 08:08 | 49.17392 | 11.24539 | 27040 ft | 412 kts | 335° |
| 2026-05-08 08:08 | 49.20106 | 11.23079 | 27426 ft | 417 kts | 341° |
| 2026-05-08 08:09 | 49.22981 | 11.22274 | 27831 ft | 422 kts | 351° |
| 2026-05-08 08:09 | 49.25935 | 11.22167 | 28179 ft | 427 kts | 357° |
| 2026-05-08 08:09 | 49.28916 | 11.22203 | 28505 ft | 430 kts | 357° |
| 2026-05-08 08:09 | 49.31911 | 11.22232 | 28847 ft | 432 kts | 356° |
| 2026-05-08 08:10 | 49.34929 | 11.22258 | 29180 ft | 433 kts | 356° |
| 2026-05-08 08:10 | 49.37952 | 11.22287 | 29473 ft | 436 kts | 356° |
| 2026-05-08 08:10 | 49.40994 | 11.22311 | 29787 ft | 439 kts | 356° |
| 2026-05-08 08:10 | 49.44050 | 11.22335 | 30132 ft | 441 kts | 357° |
| 2026-05-08 08:11 | 49.47126 | 11.22359 | 30405 ft | 443 kts | 357° |
| 2026-05-08 08:11 | 49.50215 | 11.22380 | 30661 ft | 445 kts | 356° |
| 2026-05-08 08:11 | 49.53318 | 11.22398 | 30918 ft | 447 kts | 356° |
| 2026-05-08 08:11 | 49.56429 | 11.22419 | 31167 ft | 449 kts | 356° |
| 2026-05-08 08:12 | 49.59599 | 11.22436 | 31418 ft | 450 kts | 356° |
| 2026-05-08 08:12 | 49.62735 | 11.22447 | 31715 ft | 450 kts | 356° |
| 2026-05-08 08:12 | 49.65865 | 11.22452 | 32101 ft | 449 kts | 356° |
| 2026-05-08 08:12 | 49.68983 | 11.22454 | 32484 ft | 447 kts | 356° |
| 2026-05-08 08:13 | 49.72093 | 11.22456 | 32834 ft | 447 kts | 356° |
| 2026-05-08 08:13 | 49.75201 | 11.22457 | 33153 ft | 446 kts | 356° |
| 2026-05-08 08:13 | 49.78301 | 11.22461 | 33493 ft | 445 kts | 356° |
| 2026-05-08 08:13 | 49.81397 | 11.22475 | 33838 ft | 445 kts | 356° |
| 2026-05-08 08:14 | 49.84490 | 11.22494 | 34183 ft | 444 kts | 356° |
| 2026-05-08 08:14 | 49.87580 | 11.22513 | 34476 ft | 444 kts | 356° |
| 2026-05-08 08:14 | 49.90667 | 11.22529 | 34759 ft | 444 kts | 356° |
| 2026-05-08 08:14 | 49.93757 | 11.22548 | 35007 ft | 444 kts | 356° |
| 2026-05-08 08:15 | 49.96850 | 11.22569 | 35236 ft | 444 kts | 356° |
| 2026-05-08 08:15 | 49.98895 | 11.22584 | 35381 ft | 445 kts | 356° |
| 2026-05-08 08:15 | 50.01990 | 11.22601 | 35591 ft | 445 kts | 356° |
| 2026-05-08 08:15 | 50.05088 | 11.22615 | 35797 ft | 446 kts | 356° |
| 2026-05-08 08:16 | 50.08192 | 11.22632 | 36014 ft | 446 kts | 356° |
| 2026-05-08 08:16 | 50.11304 | 11.22654 | 36238 ft | 447 kts | 356° |
| 2026-05-08 08:16 | 50.14411 | 11.22677 | 36454 ft | 447 kts | 357° |
| 2026-05-08 08:16 | 50.17521 | 11.22698 | 36649 ft | 447 kts | 356° |
| 2026-05-08 08:17 | 50.20634 | 11.22713 | 36833 ft | 448 kts | 356° |
| 2026-05-08 08:17 | 50.23752 | 11.22725 | 37018 ft | 448 kts | 356° |
| 2026-05-08 08:17 | 50.26877 | 11.22737 | 37188 ft | 449 kts | 357° |
| 2026-05-08 08:17 | 50.29996 | 11.22756 | 37365 ft | 449 kts | 357° |
| 2026-05-08 08:18 | 50.33122 | 11.22775 | 37540 ft | 449 kts | 357° |
| 2026-05-08 08:18 | 50.36247 | 11.22796 | 37724 ft | 449 kts | 357° |
| 2026-05-08 08:18 | 50.39380 | 11.22892 | 37891 ft | 450 kts | 359° |
| 2026-05-08 08:18 | 50.42520 | 11.23087 | 38081 ft | 451 kts | 360° |
| 2026-05-08 08:19 | 50.45648 | 11.23340 | 38137 ft | 451 kts | 0° |
| 2026-05-08 08:19 | 50.51918 | 11.23884 | 38141 ft | 451 kts | 360° |
| 2026-05-08 08:20 | 50.58184 | 11.24366 | 38141 ft | 451 kts | 359° |
| 2026-05-08 08:20 | 50.64446 | 11.24779 | 38150 ft | 451 kts | 359° |
| 2026-05-08 08:21 | 50.70714 | 11.25201 | 38145 ft | 450 kts | 359° |
| 2026-05-08 08:21 | 50.76982 | 11.25646 | 38149 ft | 451 kts | 359° |
| 2026-05-08 08:22 | 50.83253 | 11.26090 | 38159 ft | 451 kts | 359° |
| 2026-05-08 08:22 | 50.89520 | 11.26531 | 38160 ft | 451 kts | 360° |
| 2026-05-08 08:23 | 50.95794 | 11.26988 | 38169 ft | 451 kts | 360° |
| 2026-05-08 08:23 | 51.02062 | 11.27437 | 38166 ft | 451 kts | 359° |
| 2026-05-08 08:24 | 51.08334 | 11.27877 | 38174 ft | 451 kts | 360° |
| 2026-05-08 08:24 | 51.14597 | 11.28319 | 38172 ft | 451 kts | 360° |
| 2026-05-08 08:25 | 51.20877 | 11.28768 | 38176 ft | 451 kts | 359° |
| 2026-05-08 08:25 | 51.27146 | 11.29211 | 38185 ft | 450 kts | 360° |
| 2026-05-08 08:26 | 51.33408 | 11.29663 | 38181 ft | 451 kts | 360° |
| 2026-05-08 08:26 | 51.39681 | 11.30124 | 38185 ft | 451 kts | 360° |
| 2026-05-08 08:27 | 51.45958 | 11.30583 | 38181 ft | 451 kts | 360° |
| 2026-05-08 08:27 | 51.52227 | 11.31036 | 38193 ft | 451 kts | 360° |
| 2026-05-08 08:28 | 51.58494 | 11.31490 | 38198 ft | 450 kts | 360° |
| 2026-05-08 08:28 | 51.64753 | 11.31940 | 38200 ft | 450 kts | 360° |
| 2026-05-08 08:29 | 51.71014 | 11.32395 | 38207 ft | 450 kts | 360° |
| 2026-05-08 08:29 | 51.77314 | 11.32864 | 38220 ft | 450 kts | 360° |
| 2026-05-08 08:30 | 51.83573 | 11.33322 | 38216 ft | 450 kts | 360° |
| 2026-05-08 08:30 | 51.92964 | 11.34004 | 38210 ft | 450 kts | 360° |
| 2026-05-08 08:31 | 51.99190 | 11.34477 | 38226 ft | 451 kts | 0° |
| 2026-05-08 08:31 | 52.05453 | 11.34949 | 38200 ft | 450 kts | 359° |
| 2026-05-08 08:32 | 52.11696 | 11.34914 | 38210 ft | 448 kts | 355° |
| 2026-05-08 08:32 | 52.17918 | 11.34389 | 38204 ft | 448 kts | 354° |
| 2026-05-08 08:33 | 52.24144 | 11.33862 | 38217 ft | 448 kts | 355° |
| 2026-05-08 08:33 | 52.30374 | 11.33459 | 38204 ft | 448 kts | 355° |
| 2026-05-08 08:34 | 52.36616 | 11.33123 | 38201 ft | 448 kts | 355° |
| 2026-05-08 08:34 | 52.42854 | 11.32786 | 38212 ft | 449 kts | 355° |
| 2026-05-08 08:35 | 52.49095 | 11.32421 | 38208 ft | 449 kts | 355° |
| 2026-05-08 08:35 | 52.55332 | 11.32040 | 38207 ft | 449 kts | 355° |
| 2026-05-08 08:36 | 52.61573 | 11.31654 | 38206 ft | 449 kts | 355° |
| 2026-05-08 08:36 | 52.67822 | 11.31282 | 38221 ft | 448 kts | 355° |
| 2026-05-08 08:37 | 52.74060 | 11.30922 | 38225 ft | 449 kts | 355° |
| 2026-05-08 08:37 | 52.80300 | 11.30533 | 38219 ft | 449 kts | 355° |
| 2026-05-08 08:38 | 52.86537 | 11.30153 | 38211 ft | 449 kts | 356° |
| 2026-05-08 08:38 | 52.92785 | 11.29786 | 38213 ft | 449 kts | 356° |
| 2026-05-08 08:39 | 52.99027 | 11.29405 | 38213 ft | 449 kts | 356° |
| 2026-05-08 08:39 | 53.05270 | 11.29017 | 38211 ft | 449 kts | 355° |
| 2026-05-08 08:40 | 53.11507 | 11.28630 | 38212 ft | 449 kts | 356° |
| 2026-05-08 08:40 | 53.17762 | 11.28512 | 38221 ft | 450 kts | 358° |
| 2026-05-08 08:41 | 53.24029 | 11.28738 | 38229 ft | 450 kts | 359° |
| 2026-05-08 08:41 | 53.30292 | 11.28962 | 38222 ft | 450 kts | 359° |
| 2026-05-08 08:42 | 53.36552 | 11.29094 | 38224 ft | 450 kts | 358° |
| 2026-05-08 08:42 | 53.42813 | 11.29189 | 38226 ft | 450 kts | 358° |
| 2026-05-08 08:43 | 53.49080 | 11.29292 | 38238 ft | 450 kts | 359° |
| 2026-05-08 08:43 | 53.55344 | 11.29413 | 38238 ft | 450 kts | 359° |
| 2026-05-08 08:44 | 53.61612 | 11.29527 | 38231 ft | 451 kts | 359° |
| 2026-05-08 08:44 | 53.67932 | 11.29648 | 38232 ft | 451 kts | 359° |
| 2026-05-08 08:45 | 53.74213 | 11.29774 | 38240 ft | 451 kts | 359° |
| 2026-05-08 08:45 | 53.80447 | 11.29890 | 38237 ft | 451 kts | 359° |
| 2026-05-08 08:46 | 53.86766 | 11.30008 | 38252 ft | 451 kts | 359° |
| 2026-05-08 08:46 | 53.93003 | 11.30127 | 38253 ft | 452 kts | 359° |
| 2026-05-08 08:47 | 53.99295 | 11.30248 | 38258 ft | 452 kts | 359° |
| 2026-05-08 08:47 | 54.05630 | 11.30372 | 38263 ft | 452 kts | 359° |
| 2026-05-08 08:48 | 54.11920 | 11.30503 | 38265 ft | 452 kts | 359° |
| 2026-05-08 08:48 | 54.18167 | 11.30626 | 38262 ft | 452 kts | 359° |
| 2026-05-08 08:49 | 54.24495 | 11.30735 | 38269 ft | 451 kts | 359° |
| 2026-05-08 08:49 | 54.30775 | 11.30848 | 38274 ft | 451 kts | 359° |
| 2026-05-08 08:50 | 54.37055 | 11.30983 | 38274 ft | 452 kts | 359° |
| 2026-05-08 08:50 | 54.43339 | 11.31114 | 38279 ft | 452 kts | 359° |
| 2026-05-08 08:51 | 54.49622 | 11.31228 | 38293 ft | 451 kts | 359° |
| 2026-05-08 08:51 | 54.54845 | 11.31325 | 38282 ft | 451 kts | 359° |
| 2026-05-08 08:52 | 54.61128 | 11.31619 | 38279 ft | 452 kts | 1° |
| 2026-05-08 08:52 | 54.67414 | 11.32211 | 38281 ft | 453 kts | 2° |
| 2026-05-08 08:53 | 54.73699 | 11.32838 | 38287 ft | 452 kts | 2° |
| 2026-05-08 08:53 | 54.79985 | 11.33394 | 38285 ft | 452 kts | 1° |
| 2026-05-08 08:54 | 54.86270 | 11.33891 | 38288 ft | 452 kts | 1° |
| 2026-05-08 08:54 | 54.92554 | 11.34398 | 38289 ft | 452 kts | 1° |
| 2026-05-08 08:55 | 54.98840 | 11.34937 | 38286 ft | 452 kts | 1° |
| 2026-05-08 08:55 | 55.05125 | 11.35480 | 38300 ft | 452 kts | 1° |
| 2026-05-08 08:56 | 55.11410 | 11.36009 | 38294 ft | 452 kts | 1° |
| 2026-05-08 08:56 | 55.17696 | 11.36541 | 38294 ft | 452 kts | 1° |
| 2026-05-08 08:57 | 55.23978 | 11.37073 | 38296 ft | 452 kts | 1° |
| 2026-05-08 08:57 | 55.30308 | 11.37618 | 38298 ft | 452 kts | 2° |
| 2026-05-08 08:58 | 55.36590 | 11.38171 | 38294 ft | 452 kts | 2° |
| 2026-05-08 08:58 | 55.42873 | 11.38718 | 38290 ft | 451 kts | 2° |
| 2026-05-08 08:59 | 55.49147 | 11.39255 | 38295 ft | 452 kts | 2° |
| 2026-05-08 08:59 | 55.55430 | 11.39792 | 38294 ft | 452 kts | 2° |
| 2026-05-08 09:00 | 55.61700 | 11.40335 | 38293 ft | 451 kts | 2° |
| 2026-05-08 09:00 | 55.67931 | 11.40886 | 38293 ft | 451 kts | 2° |
| 2026-05-08 09:01 | 55.74202 | 11.41435 | 38292 ft | 451 kts | 1° |
| 2026-05-08 09:01 | 55.80505 | 11.41577 | 38294 ft | 450 kts | 358° |
| 2026-05-08 09:02 | 55.86775 | 11.41264 | 38291 ft | 451 kts | 357° |
| 2026-05-08 09:02 | 55.93012 | 11.40972 | 38297 ft | 451 kts | 358° |
| 2026-05-08 09:03 | 55.99280 | 11.40780 | 38296 ft | 450 kts | 358° |
| 2026-05-08 09:03 | 56.05538 | 11.40638 | 38313 ft | 450 kts | 358° |
| 2026-05-08 09:04 | 56.11805 | 11.40481 | 38302 ft | 450 kts | 358° |
| 2026-05-08 09:04 | 56.18069 | 11.40329 | 38298 ft | 452 kts | 358° |
| 2026-05-08 09:05 | 56.24358 | 11.40142 | 38297 ft | 452 kts | 358° |
| 2026-05-08 09:05 | 56.30652 | 11.39973 | 38298 ft | 452 kts | 358° |
| 2026-05-08 09:06 | 56.36950 | 11.39797 | 38305 ft | 454 kts | 358° |
| 2026-05-08 09:06 | 56.43256 | 11.39628 | 38307 ft | 453 kts | 358° |
| 2026-05-08 09:07 | 56.49586 | 11.39459 | 38302 ft | 452 kts | 358° |
| 2026-05-08 09:07 | 56.55881 | 11.39282 | 38307 ft | 452 kts | 358° |
| 2026-05-08 09:08 | 56.62170 | 11.39103 | 37923 ft | 451 kts | 358° |
| 2026-05-08 09:08 | 56.65305 | 11.39010 | 37245 ft | 450 kts | 359° |
| 2026-05-08 09:08 | 56.68437 | 11.38920 | 36573 ft | 450 kts | 359° |
| 2026-05-08 09:09 | 56.71572 | 11.38830 | 35908 ft | 450 kts | 359° |
| 2026-05-08 09:09 | 56.74702 | 11.38751 | 35245 ft | 450 kts | 0° |
| 2026-05-08 09:09 | 56.77839 | 11.38680 | 34586 ft | 450 kts | 0° |
| 2026-05-08 09:09 | 56.80974 | 11.38607 | 33868 ft | 451 kts | 0° |
| 2026-05-08 09:10 | 56.84113 | 11.38525 | 33080 ft | 451 kts | 0° |
| 2026-05-08 09:10 | 56.87249 | 11.38433 | 32283 ft | 452 kts | 0° |
| 2026-05-08 09:10 | 56.90400 | 11.38331 | 31460 ft | 453 kts | 360° |
| 2026-05-08 09:10 | 56.93548 | 11.38234 | 30663 ft | 454 kts | 360° |
| 2026-05-08 09:11 | 56.96704 | 11.38145 | 30325 ft | 453 kts | 360° |
| 2026-05-08 09:11 | 56.99857 | 11.38053 | 30283 ft | 454 kts | 360° |
| 2026-05-08 09:11 | 57.06189 | 11.37867 | 30288 ft | 454 kts | 360° |
| 2026-05-08 09:12 | 57.09290 | 11.37780 | 30283 ft | 436 kts | 360° |
| 2026-05-08 09:12 | 57.12262 | 11.37696 | 30286 ft | 419 kts | 360° |
| 2026-05-08 09:12 | 57.18016 | 11.37534 | 30288 ft | 411 kts | 360° |
| 2026-05-08 09:13 | 57.23720 | 11.37371 | 30286 ft | 410 kts | 360° |
| 2026-05-08 09:13 | 57.29419 | 11.37216 | 30288 ft | 410 kts | 360° |
| 2026-05-08 09:14 | 57.35121 | 11.37052 | 30293 ft | 410 kts | 360° |
| 2026-05-08 09:14 | 57.40825 | 11.36887 | 30291 ft | 410 kts | 360° |
| 2026-05-08 09:15 | 57.46524 | 11.36730 | 30286 ft | 410 kts | 359° |
| 2026-05-08 09:15 | 57.52229 | 11.36564 | 30285 ft | 410 kts | 359° |
| 2026-05-08 09:16 | 57.57936 | 11.36396 | 30278 ft | 410 kts | 359° |
| 2026-05-08 09:16 | 57.63642 | 11.36236 | 30279 ft | 410 kts | 359° |
| 2026-05-08 09:17 | 57.69347 | 11.36062 | 30274 ft | 410 kts | 359° |
| 2026-05-08 09:17 | 57.75053 | 11.35890 | 30268 ft | 411 kts | 359° |
| 2026-05-08 09:18 | 57.80765 | 11.35720 | 30268 ft | 411 kts | 359° |
| 2026-05-08 09:18 | 57.86481 | 11.35556 | 30266 ft | 410 kts | 359° |
| 2026-05-08 09:19 | 57.92199 | 11.35380 | 30270 ft | 411 kts | 359° |
| 2026-05-08 09:19 | 57.97913 | 11.35216 | 30273 ft | 411 kts | 359° |
| 2026-05-08 09:20 | 58.03638 | 11.35058 | 30273 ft | 411 kts | 359° |
| 2026-05-08 09:20 | 58.09369 | 11.34881 | 30276 ft | 412 kts | 359° |
| 2026-05-08 09:21 | 58.15106 | 11.34706 | 30283 ft | 412 kts | 359° |
| 2026-05-08 09:23 | 58.35176 | 11.34117 | 30273 ft | 411 kts | 359° |
| 2026-05-08 09:23 | 58.40900 | 11.33945 | 30272 ft | 412 kts | 359° |
| 2026-05-08 09:24 | 58.46637 | 11.33764 | 30273 ft | 412 kts | 359° |
| 2026-05-08 09:24 | 58.52362 | 11.33579 | 30275 ft | 412 kts | 359° |
| 2026-05-08 09:25 | 58.58104 | 11.33395 | 30272 ft | 412 kts | 359° |
| 2026-05-08 09:25 | 58.63837 | 11.33222 | 30289 ft | 412 kts | 359° |
| 2026-05-08 09:26 | 58.69575 | 11.33044 | 30286 ft | 412 kts | 359° |
| 2026-05-08 09:26 | 58.75289 | 11.32865 | 29964 ft | 406 kts | 359° |
| 2026-05-08 09:26 | 58.78109 | 11.32774 | 29677 ft | 403 kts | 359° |
| 2026-05-08 09:27 | 58.80902 | 11.32692 | 29390 ft | 401 kts | 359° |
| 2026-05-08 09:27 | 58.83686 | 11.32612 | 29112 ft | 399 kts | 358° |
| 2026-05-08 09:27 | 58.86457 | 11.32530 | 28834 ft | 397 kts | 358° |
| 2026-05-08 09:27 | 58.89214 | 11.32447 | 28557 ft | 396 kts | 358° |
| 2026-05-08 09:28 | 58.91962 | 11.32366 | 28267 ft | 394 kts | 358° |
| 2026-05-08 09:28 | 58.94703 | 11.32286 | 28010 ft | 393 kts | 358° |
| 2026-05-08 09:28 | 58.97425 | 11.32198 | 27746 ft | 391 kts | 358° |
| 2026-05-08 09:28 | 59.00140 | 11.32108 | 27479 ft | 389 kts | 358° |
| 2026-05-08 09:29 | 59.02842 | 11.32017 | 27216 ft | 388 kts | 358° |
| 2026-05-08 09:29 | 59.04626 | 11.31957 | 27042 ft | 387 kts | 358° |
| 2026-05-08 09:29 | 59.07313 | 11.31868 | 26782 ft | 385 kts | 358° |
| 2026-05-08 09:29 | 59.09993 | 11.31812 | 26529 ft | 384 kts | 359° |
| 2026-05-08 09:30 | 59.12656 | 11.31886 | 26174 ft | 382 kts | 0° |
| 2026-05-08 09:30 | 59.15304 | 11.32057 | 25761 ft | 379 kts | 1° |
| 2026-05-08 09:30 | 59.17925 | 11.32269 | 25336 ft | 376 kts | 1° |
| 2026-05-08 09:30 | 59.20531 | 11.32496 | 24907 ft | 373 kts | 1° |
| 2026-05-08 09:31 | 59.23119 | 11.32682 | 24486 ft | 371 kts | 0° |
| 2026-05-08 09:31 | 59.25692 | 11.32838 | 24046 ft | 369 kts | 0° |
| 2026-05-08 09:31 | 59.28252 | 11.32985 | 23606 ft | 367 kts | 0° |
| 2026-05-08 09:31 | 59.30794 | 11.33135 | 23141 ft | 365 kts | 0° |
| 2026-05-08 09:32 | 59.33317 | 11.33284 | 22708 ft | 361 kts | 0° |
| 2026-05-08 09:32 | 59.35822 | 11.33435 | 22278 ft | 359 kts | 0° |
| 2026-05-08 09:32 | 59.38310 | 11.33591 | 21854 ft | 357 kts | 0° |
| 2026-05-08 09:32 | 59.40779 | 11.33742 | 21454 ft | 354 kts | 0° |
| 2026-05-08 09:33 | 59.43233 | 11.33899 | 21053 ft | 352 kts | 0° |
| 2026-05-08 09:33 | 59.45672 | 11.34054 | 20655 ft | 350 kts | 0° |
| 2026-05-08 09:33 | 59.48095 | 11.34206 | 20268 ft | 347 kts | 0° |
| 2026-05-08 09:33 | 59.50502 | 11.34355 | 19896 ft | 345 kts | 0° |
| 2026-05-08 09:34 | 59.52895 | 11.34502 | 19524 ft | 343 kts | 0° |
| 2026-05-08 09:34 | 59.55275 | 11.34652 | 19162 ft | 341 kts | 1° |
| 2026-05-08 09:34 | 59.57638 | 11.34800 | 18801 ft | 339 kts | 1° |
| 2026-05-08 09:34 | 59.59987 | 11.34944 | 18444 ft | 337 kts | 1° |
| 2026-05-08 09:35 | 59.62325 | 11.35090 | 18048 ft | 335 kts | 1° |
| 2026-05-08 09:35 | 59.64651 | 11.35241 | 17764 ft | 334 kts | 1° |
| 2026-05-08 09:35 | 59.66972 | 11.35393 | 17494 ft | 333 kts | 1° |
| 2026-05-08 09:35 | 59.69287 | 11.35545 | 17234 ft | 332 kts | 0° |
| 2026-05-08 09:36 | 59.71590 | 11.35687 | 16969 ft | 331 kts | 0° |
| 2026-05-08 09:36 | 59.73889 | 11.35829 | 16703 ft | 330 kts | 0° |
| 2026-05-08 09:36 | 59.76180 | 11.35975 | 16441 ft | 329 kts | 0° |
| 2026-05-08 09:36 | 59.78461 | 11.36125 | 16184 ft | 327 kts | 0° |
| 2026-05-08 09:37 | 59.80732 | 11.36274 | 15910 ft | 326 kts | 0° |
| 2026-05-08 09:37 | 59.82997 | 11.36418 | 15659 ft | 325 kts | 0° |
| 2026-05-08 09:37 | 59.85253 | 11.36560 | 15302 ft | 325 kts | 0° |
| 2026-05-08 09:37 | 59.87518 | 11.36705 | 14872 ft | 326 kts | 0° |
| 2026-05-08 09:38 | 59.89771 | 11.36847 | 14624 ft | 322 kts | 0° |
| 2026-05-08 09:38 | 59.91995 | 11.36988 | 14380 ft | 319 kts | 0° |
| 2026-05-08 09:38 | 59.94211 | 11.37128 | 14142 ft | 318 kts | 0° |
| 2026-05-08 09:38 | 59.96414 | 11.37269 | 13879 ft | 316 kts | 0° |
| 2026-05-08 09:39 | 59.98608 | 11.37410 | 13608 ft | 315 kts | 360° |
| 2026-05-08 09:39 | 60.00796 | 11.37550 | 13339 ft | 314 kts | 0° |
| 2026-05-08 09:39 | 60.02980 | 11.37690 | 13062 ft | 313 kts | 0° |
| 2026-05-08 09:39 | 60.05156 | 11.37830 | 12801 ft | 312 kts | 0° |
| 2026-05-08 09:40 | 60.07312 | 11.37974 | 12544 ft | 308 kts | 0° |
| 2026-05-08 09:40 | 60.09443 | 11.38116 | 12188 ft | 306 kts | 0° |
| 2026-05-08 09:40 | 60.11576 | 11.38258 | 11806 ft | 306 kts | 0° |
| 2026-05-08 09:40 | 60.13702 | 11.38398 | 11424 ft | 306 kts | 0° |
| 2026-05-08 09:41 | 60.15833 | 11.38537 | 10982 ft | 308 kts | 0° |
| 2026-05-08 09:41 | 60.17961 | 11.38680 | 10627 ft | 306 kts | 0° |
| 2026-05-08 09:41 | 60.20098 | 11.38817 | 10214 ft | 308 kts | 0° |
| 2026-05-08 09:41 | 60.22243 | 11.38952 | 9773 ft | 309 kts | 0° |
| 2026-05-08 09:42 | 60.24390 | 11.39082 | 9357 ft | 308 kts | 0° |
| 2026-05-08 09:42 | 60.26516 | 11.39219 | 8995 ft | 305 kts | 0° |
| 2026-05-08 09:42 | 60.28626 | 11.39362 | 8604 ft | 303 kts | 0° |
| 2026-05-08 09:42 | 60.30725 | 11.39503 | 8213 ft | 301 kts | 0° |
| 2026-05-08 09:43 | 60.32804 | 11.39640 | 7736 ft | 296 kts | 0° |
| 2026-05-08 09:43 | 60.34855 | 11.39778 | 7055 ft | 293 kts | 0° |
| 2026-05-08 09:43 | 60.36869 | 11.39910 | 6532 ft | 284 kts | 360° |
| 2026-05-08 09:43 | 60.38784 | 11.40032 | 6394 ft | 268 kts | 360° |
| 2026-05-08 09:44 | 60.40613 | 11.40103 | 6247 ft | 256 kts | 353° |
| 2026-05-08 09:44 | 60.42227 | 11.39045 | 6120 ft | 238 kts | 321° |
| 2026-05-08 09:44 | 60.43321 | 11.36735 | 5939 ft | 221 kts | 294° |
| 2026-05-08 09:44 | 60.43770 | 11.33873 | 5624 ft | 210 kts | 269° |
| 2026-05-08 09:45 | 60.43575 | 11.31020 | 5294 ft | 203 kts | 245° |
| 2026-05-08 09:45 | 60.42840 | 11.28624 | 4979 ft | 199 kts | 224° |
| 2026-05-08 09:45 | 60.41798 | 11.26795 | 4652 ft | 199 kts | 219° |
| 2026-05-08 09:45 | 60.40742 | 11.24994 | 4323 ft | 198 kts | 219° |
| 2026-05-08 09:46 | 60.39568 | 11.23583 | 4063 ft | 196 kts | 199° |
| 2026-05-08 09:46 | 60.38256 | 11.22795 | 3722 ft | 198 kts | 196° |
| 2026-05-08 09:46 | 60.36941 | 11.22033 | 3528 ft | 192 kts | 195° |
| 2026-05-08 09:46 | 60.35691 | 11.21303 | 3505 ft | 183 kts | 195° |
| 2026-05-08 09:47 | 60.34482 | 11.20597 | 3501 ft | 180 kts | 196° |
| 2026-05-08 09:47 | 60.33280 | 11.19897 | 3399 ft | 179 kts | 195° |
| 2026-05-08 09:47 | 60.32074 | 11.19193 | 3199 ft | 183 kts | 195° |
| 2026-05-08 09:47 | 60.30835 | 11.18471 | 2970 ft | 183 kts | 195° |
| 2026-05-08 09:48 | 60.29638 | 11.17774 | 2702 ft | 179 kts | 195° |
| 2026-05-08 09:48 | 60.28438 | 11.17076 | 2466 ft | 177 kts | 195° |
| 2026-05-08 09:48 | 60.27268 | 11.16396 | 2213 ft | 172 kts | 195° |
| 2026-05-08 09:48 | 60.26139 | 11.15740 | 1977 ft | 165 kts | 196° |
| 2026-05-08 09:49 | 60.25069 | 11.15119 | 1753 ft | 154 kts | 196° |
| 2026-05-08 09:49 | 60.24086 | 11.14548 | 1562 ft | 139 kts | 196° |
| 2026-05-08 09:49 | 60.23183 | 11.14010 | 1366 ft | 133 kts | 196° |
| 2026-05-08 09:49 | 60.22318 | 11.13436 | 1203 ft | 129 kts | 194° |
| 2026-05-08 09:50 | 60.21451 | 11.13011 | 1020 ft | 129 kts | 193° |
| 2026-05-08 09:50 | 60.20589 | 11.12503 | 850 ft | 129 kts | 195° |
| 2026-05-08 09:50 | 60.19725 | 11.12024 | 694 ft | 127 kts | 195° |
| 2026-05-08 09:50 | 60.18996 | 11.11609 | 684 ft | 85 kts | 196° |
| 2026-05-08 09:51 | 60.18612 | 11.11380 | 681 ft | 34 kts | 198° |
| 2026-05-08 09:51 | 60.18473 | 11.11209 | 682 ft | 15 kts | 222° |
| 2026-05-08 09:51 | 60.18436 | 11.11100 | 682 ft | 8 kts | 259° |
| 2026-05-08 09:51 | 60.18441 | 11.10989 | 682 ft | 8 kts | 278° |
| 2026-05-08 09:52 | 60.18453 | 11.10898 | 683 ft | 6 kts | 287° |
| 2026-05-08 09:52 | 60.18504 | 11.10772 | 683 ft | 12 kts | 354° |
| 2026-05-08 09:52 | 60.18583 | 11.10799 | 681 ft | 11 kts | 15° |
| 2026-05-08 09:52 | 60.18651 | 11.10840 | 683 ft | 9 kts | 18° |
| 2026-05-08 09:53 | 60.18711 | 11.10875 | 681 ft | 11 kts | 15° |
| 2026-05-08 09:53 | 60.18844 | 11.10950 | 682 ft | 22 kts | 16° |
| 2026-05-08 09:53 | 60.18984 | 11.11032 | 683 ft | 20 kts | 16° |
| 2026-05-08 09:53 | 60.19112 | 11.11106 | 684 ft | 19 kts | 15° |
| 2026-05-08 09:54 | 60.19233 | 11.11175 | 683 ft | 16 kts | 15° |
| 2026-05-08 09:54 | 60.19337 | 11.11235 | 684 ft | 15 kts | 16° |
| 2026-05-08 09:54 | 60.19419 | 11.11204 | 684 ft | 12 kts | 302° |
| 2026-05-08 09:54 | 60.19446 | 11.11044 | 683 ft | 12 kts | 286° |
| 2026-05-08 09:55 | 60.19468 | 11.10891 | 680 ft | 11 kts | 286° |
| 2026-05-08 09:55 | 60.19489 | 11.10745 | 682 ft | 11 kts | 286° |
| 2026-05-08 09:55 | 60.19509 | 11.10604 | 679 ft | 10 kts | 285° |
| 2026-05-08 09:55 | 60.19527 | 11.10473 | 679 ft | 9 kts | 285° |
| 2026-05-08 09:56 | 60.19538 | 11.10352 | 680 ft | 8 kts | 278° |
| 2026-05-08 09:56 | 60.19551 | 11.10245 | 679 ft | 8 kts | 286° |
| 2026-05-08 09:56 | 60.19559 | 11.10194 | 682 ft | 0 kts | 286° |
| 2026-05-08 09:56 | 60.19562 | 11.10171 | 682 ft | 1 kts | 286° |
| 2026-05-08 09:57 | 60.19564 | 11.10160 | 682 ft | 0 kts | 286° |
| 2026-05-08 10:02 | 60.19564 | 11.10159 | 682 ft | 0 kts | 286° |